MUVRMUCL

Guest
Details From MUVR - JUAN GUALBERTO GOMEZ INTL
To MUCL - VILO ACUNA INTL
Flight Number -
Tags generated
Created
Modified
Stats Distance 86 nm / 159 km
Max Altitude 400 ft / 122 m
Waypoints 3
Social Downloads 0
Likes 0
Share VATSIM

Download

Looking for another format? Having issues loading an existing format? Contact us
Advertisement - Login to hide

Notes

Basic altitude profile: - Ascent Rate: 2500ft/min - Ascent Speed: 250kts - Cruise Altitude: 35000ft - Cruise Speed: 420kts - Descent Rate: 1500ft/min - Descent Speed: 250kts Options: - Use NATs: yes - Use PACOTS: yes - Use low airways: yes - Use high airways: yes

Route

MUVR UVA MUCL

ID Type Via Altitude Latitude Longitude Leg Dist Tot Dist Heading (true) Name
O MUVR APT - 0 ft / 0 m 23.03444˚ -81.43527˚ - 0 nm - JUAN GUALBERTO GOMEZ INTL
UVA VOR - 400 ft / 122 m 23.02469˚ -81.45358˚ 1 nm 1 nm 240° / 240° VARDER VOR-DME
O MUCL APT - 0 ft / 0 m 21.61645˚ -81.54600˚ 84 nm 85 nm 183° / 183° VILO ACUNA INTL

Altitude Profile

Advertisement - Login to hide

MUVR

Details ICAO MUVR (VRA)
Name JUAN GUALBERTO GOMEZ INTL
Region Cuba
Timezone America/Havana (UTC-5.0)
Stats Elevation 209 ft / 64 m (AMSL)
Location 23.034439° -81.435269°
Runways 1
Magnetic Variation 5.517° W

METAR

MUVR 121151Z VRB02KT 9000 FEW020 SCT200 10/10 Q1020

Decode

TAF

Not found

Departure Runways

ID Width Length Bearing (true) Bearing (mag) Surface Threshold Offset Overrun Length
06 148 ft / 45 m 11,494 ft / 3,503 m 55.47° 60.99° Asphalt 0 ft / 0 m 197 ft / 60 m
24 148 ft / 45 m 11,494 ft / 3,503 m 235.48° 241.00° Asphalt 0 ft / 0 m 197 ft / 60 m

MUCL

Details ICAO MUCL (CYO)
Name VILO ACUNA INTL
Region Cuba
Timezone America/Havana (UTC-5.0)
Stats Elevation 10 ft / 3 m (AMSL)
Location 21.616452° -81.546000°
Runways 1
Magnetic Variation 5.233° W

METAR

MUCL 121150Z 35008KT 320V020 9000 FEW020 19/14 Q1019

Decode

TAF

Not found

Destination Runways

ID Width Length Bearing (true) Bearing (mag) Surface Threshold Offset Overrun Length
12 148 ft / 45 m 9,868 ft / 3,008 m 116.16° 121.39° Asphalt 0 ft / 0 m 197 ft / 60 m
30 148 ft / 45 m 9,868 ft / 3,008 m 296.17° 301.40° Asphalt 0 ft / 0 m 197 ft / 60 m